Terminal Aerodrome Forecast
Issued by NWS Portland, ME

Home | Current Version | Previous Version | Text Only | Print | Product List | Glossary On
Versions: 1 2 3 4 5 6 7 8 9 10 11 12 13 14 15 16 17 18 19 20 21 22 23 24 25 26 27 28 29 30
000
FTUS41 KGYX 182324
TAFPWM
TAF
KPWM 182324Z 1900/1924 32010KT P6SM BKN060 BKN100
      TEMPO 1900/1904 SCT060 BKN100
     FM190400 31006KT P6SM SCT070 BKN100
     FM191300 32008KT P6SM SCT050 BKN120=

USA.gov is the U.S. government's official web portal to all federal, state and local government web resources and services.